createdAt,value
2019-01-22T00:00:02.386Z,-4.43
2019-01-22T00:01:02.691Z,-4.37
2019-01-22T00:02:03.024Z,-4.37
2019-01-22T00:03:02.353Z,-4.43
2019-01-22T00:04:02.684Z,-4.43
2019-01-22T00:05:03.005Z,-4.43
2019-01-22T00:06:02.344Z,-4.43
2019-01-22T00:07:02.756Z,-4.43
2019-01-22T00:08:03.162Z,-4.43
2019-01-22T00:09:02.450Z,-4.5
2019-01-22T00:10:02.773Z,-4.43
2019-01-22T00:11:03.096Z,-4.5
2019-01-22T00:12:02.451Z,-4.43
2019-01-22T00:13:02.788Z,-4.43
2019-01-22T00:14:03.111Z,-4.43
2019-01-22T00:15:02.836Z,-4.43
2019-01-22T00:16:03.188Z,-4.43
2019-01-22T00:17:02.528Z,-4.43
2019-01-22T00:18:02.851Z,-4.43
2019-01-22T00:19:03.190Z,-4.43
2019-01-22T00:20:02.532Z,-4.56
2019-01-22T00:21:02.841Z,-4.5
2019-01-22T00:22:03.246Z,-4.56
2019-01-22T00:23:03.128Z,-4.5
2019-01-22T00:24:02.474Z,-4.43
2019-01-22T00:25:02.781Z,-4.5
2019-01-22T00:26:03.100Z,-4.56
2019-01-22T00:27:02.441Z,-4.5
2019-01-22T00:28:02.768Z,-4.5
2019-01-22T00:29:03.141Z,-4.5
2019-01-22T00:30:02.453Z,-4.43
2019-01-22T00:31:03.004Z,-4.5
2019-01-22T00:32:02.282Z,-4.5
2019-01-22T00:33:02.607Z,-4.43
2019-01-22T00:34:02.938Z,-4.56
2019-01-22T00:35:04.256Z,-4.56
2019-01-22T00:36:02.528Z,-4.56
2019-01-22T00:37:02.848Z,-4.5
2019-01-22T00:38:03.270Z,-4.5
2019-01-22T00:39:02.528Z,-4.5
2019-01-22T00:40:02.859Z,-4.56
2019-01-22T00:41:03.180Z,-4.56
2019-01-22T00:42:02.534Z,-4.62
2019-01-22T00:43:02.844Z,-4.62
2019-01-22T00:44:03.161Z,-4.62
2019-01-22T00:45:02.454Z,-4.62
2019-01-22T00:46:02.793Z,-4.68
2019-01-22T00:47:03.097Z,-4.62
2019-01-22T00:48:02.847Z,-4.62
2019-01-22T00:49:03.162Z,-4.68
2019-01-22T00:50:02.442Z,-4.68
2019-01-22T00:51:02.742Z,-4.62
2019-01-22T00:52:03.171Z,-4.68
2019-01-22T00:53:02.456Z,-4.81
2019-01-22T00:54:02.818Z,-4.75
2019-01-22T00:55:03.169Z,-4.87
2019-01-22T00:56:02.695Z,-4.81
2019-01-22T00:57:03.026Z,-4.87
2019-01-22T00:58:02.289Z,-4.81
2019-01-22T00:59:02.624Z,-4.81
2019-01-22T01:00:02.934Z,-4.81
2019-01-22T01:01:03.298Z,-4.81
2019-01-22T01:02:02.641Z,-4.75
2019-01-22T01:03:02.931Z,-4.81
2019-01-22T01:04:02.538Z,-4.93
2019-01-22T01:05:02.860Z,-5
2019-01-22T01:06:03.179Z,-5
2019-01-22T01:07:02.518Z,-4.93
2019-01-22T01:08:02.845Z,-4.87
2019-01-22T01:09:03.456Z,-4.93
2019-01-22T01:10:02.778Z,-5
2019-01-22T01:11:03.079Z,-5
2019-01-22T01:12:02.426Z,-5.12
2019-01-22T01:13:02.783Z,-5
2019-01-22T01:14:03.087Z,-5
2019-01-22T01:15:02.376Z,-4.87
2019-01-22T01:16:02.700Z,-4.87
2019-01-22T01:17:03.061Z,-4.87
2019-01-22T01:18:02.375Z,-4.81
2019-01-22T01:19:02.719Z,-4.81
2019-01-22T01:20:03.003Z,-4.75
2019-01-22T01:21:02.285Z,-4.68
2019-01-22T01:22:02.617Z,-4.68
2019-01-22T01:23:02.953Z,-4.75
2019-01-22T01:24:02.292Z,-4.75
2019-01-22T01:25:02.703Z,-4.75
2019-01-22T01:26:02.994Z,-4.75
2019-01-22T01:27:02.279Z,-4.75
2019-01-22T01:28:02.633Z,-4.75
2019-01-22T01:29:02.912Z,-4.75
2019-01-22T01:30:03.297Z,-4.81
2019-01-22T01:31:02.608Z,-4.81
2019-01-22T01:32:02.947Z,-4.81
2019-01-22T01:33:02.304Z,-4.87
2019-01-22T01:34:02.624Z,-4.87
2019-01-22T01:35:02.931Z,-4.93
2019-01-22T01:36:03.248Z,-4.87
2019-01-22T01:37:02.943Z,-4.93
2019-01-22T01:38:02.294Z,-4.87
2019-01-22T01:39:02.629Z,-4.87
2019-01-22T01:40:02.977Z,-4.93
2019-01-22T01:41:02.302Z,-5
2019-01-22T01:42:02.612Z,-5
2019-01-22T01:43:02.934Z,-5.18
2019-01-22T01:44:03.336Z,-5.25
2019-01-22T01:45:03.000Z,-5.12
2019-01-22T01:46:02.322Z,-5.06
2019-01-22T01:47:02.605Z,-5.06
2019-01-22T01:48:02.933Z,-5.12
2019-01-22T01:49:03.301Z,-5.06
2019-01-22T01:50:02.622Z,-5.06
2019-01-22T01:51:02.921Z,-5.06
2019-01-22T01:52:03.240Z,-5.06
2019-01-22T01:53:02.852Z,-5
2019-01-22T01:54:03.234Z,-4.93
2019-01-22T01:55:02.591Z,-4.87
2019-01-22T01:56:03.019Z,-4.87
2019-01-22T01:57:02.366Z,-4.87
2019-01-22T01:58:02.683Z,-4.93
2019-01-22T01:59:03.887Z,-5
2019-01-22T02:00:03.187Z,-4.93
2019-01-22T02:01:02.843Z,-4.93
2019-01-22T02:02:03.182Z,-4.93
2019-01-22T02:03:02.445Z,-4.93
2019-01-22T02:04:02.838Z,-4.93
2019-01-22T02:05:03.192Z,-5
2019-01-22T02:06:02.547Z,-4.93
2019-01-22T02:07:02.837Z,-4.93
2019-01-22T02:08:03.383Z,-4.93
2019-01-22T02:09:03.203Z,-4.93
2019-01-22T02:10:02.721Z,-5
2019-01-22T02:11:03.276Z,-5
2019-01-22T02:12:02.806Z,-5
2019-01-22T02:13:03.288Z,-4.93
2019-01-22T02:14:02.706Z,-5
2019-01-22T02:15:03.025Z,-5.06
2019-01-22T02:16:02.334Z,-5.12
2019-01-22T02:17:02.892Z,-5.18
2019-01-22T02:18:03.170Z,-5.25
2019-01-22T02:19:02.495Z,-5.18
2019-01-22T02:20:02.773Z,-5.12
2019-01-22T02:21:03.159Z,-5.12
2019-01-22T02:22:02.454Z,-5.12
2019-01-22T02:23:03.641Z,-5.12
2019-01-22T02:24:02.921Z,-5.06
2019-01-22T02:25:03.260Z,-5.06
2019-01-22T02:26:02.894Z,-5
2019-01-22T02:27:03.181Z,-5.06
2019-01-22T02:28:02.524Z,-5
2019-01-22T02:29:02.847Z,-5
2019-01-22T02:30:03.171Z,-5
2019-01-22T02:31:02.498Z,-5
2019-01-22T02:32:02.864Z,-5
2019-01-22T02:33:03.177Z,-5
2019-01-22T02:34:02.606Z,-4.93
2019-01-22T02:35:02.923Z,-5
2019-01-22T02:36:03.298Z,-5.06
2019-01-22T02:37:02.598Z,-5.06
2019-01-22T02:38:02.922Z,-5.18
2019-01-22T02:39:03.265Z,-5.18
2019-01-22T02:40:02.521Z,-5.18
2019-01-22T02:41:02.907Z,-5.12
2019-01-22T02:42:02.367Z,-5.12
2019-01-22T02:43:02.677Z,-5.12
2019-01-22T02:44:03.022Z,-5.12
2019-01-22T02:45:02.368Z,-5.12
2019-01-22T02:46:02.676Z,-5.12
2019-01-22T02:47:03.064Z,-5.06
2019-01-22T02:48:02.392Z,-5
2019-01-22T02:49:02.677Z,-5.12
2019-01-22T02:50:03.005Z,-5.12
2019-01-22T02:51:02.628Z,-5.06
2019-01-22T02:52:02.935Z,-5.12
2019-01-22T02:53:03.321Z,-5.12
2019-01-22T02:54:02.616Z,-5.06
2019-01-22T02:55:02.927Z,-5.06
2019-01-22T02:56:03.258Z,-5
2019-01-22T02:57:02.869Z,-5.06
2019-01-22T02:58:03.199Z,-5.06
2019-01-22T02:59:02.679Z,-5.06
2019-01-22T03:00:03.886Z,-5
2019-01-22T03:01:03.175Z,-5
2019-01-22T03:02:02.467Z,-5
2019-01-22T03:03:02.838Z,-4.93
2019-01-22T03:04:03.173Z,-5
2019-01-22T03:05:02.451Z,-5
2019-01-22T03:06:02.771Z,-4.93
2019-01-22T03:07:02.286Z,-5
2019-01-22T03:08:02.661Z,-4.93
2019-01-22T03:09:02.985Z,-4.93
2019-01-22T03:10:02.303Z,-4.87
2019-01-22T03:11:02.602Z,-4.93
2019-01-22T03:12:02.970Z,-5
2019-01-22T03:13:02.344Z,-4.93
2019-01-22T03:14:02.747Z,-4.93
2019-01-22T03:15:03.005Z,-5
2019-01-22T03:16:02.612Z,-5.12
2019-01-22T03:17:02.929Z,-4.93
2019-01-22T03:18:03.259Z,-5
2019-01-22T03:19:02.549Z,-4.93
2019-01-22T03:20:02.839Z,-4.87
2019-01-22T03:21:03.167Z,-5
2019-01-22T03:22:02.450Z,-4.87
2019-01-22T03:23:02.769Z,-5
2019-01-22T03:24:02.312Z,-5
2019-01-22T03:25:02.697Z,-5
2019-01-22T03:26:02.999Z,-5.06
2019-01-22T03:27:02.290Z,-5.12
2019-01-22T03:28:02.668Z,-5.06
2019-01-22T03:29:03.086Z,-5.06
2019-01-22T03:30:02.367Z,-5
2019-01-22T03:31:02.694Z,-5.06
2019-01-22T03:32:03.279Z,-5.06
2019-01-22T03:33:02.624Z,-5.06
2019-01-22T03:34:02.977Z,-5.06
2019-01-22T03:35:02.292Z,-5.06
2019-01-22T03:36:02.618Z,-5.12
2019-01-22T03:37:02.935Z,-5.12
2019-01-22T03:38:03.246Z,-5.12
2019-01-22T03:39:02.535Z,-5.12
2019-01-22T03:40:02.942Z,-5.12
2019-01-22T03:41:02.599Z,-5.06
2019-01-22T03:42:02.926Z,-5.18
2019-01-22T03:43:03.293Z,-5.12
2019-01-22T03:44:02.601Z,-5.18
2019-01-22T03:45:02.955Z,-5.18
2019-01-22T03:46:02.280Z,-5.18
2019-01-22T03:47:02.615Z,-5.12
2019-01-22T03:48:02.947Z,-5.25
2019-01-22T03:49:02.369Z,-5.12
2019-01-22T03:50:02.778Z,-5.12
2019-01-22T03:51:03.098Z,-5.12
2019-01-22T03:52:02.444Z,-5.18
2019-01-22T03:53:02.777Z,-5.18
2019-01-22T03:54:03.094Z,-5.18
2019-01-22T03:55:02.371Z,-5.18
2019-01-22T03:56:02.776Z,-5.18
2019-01-22T03:57:03.074Z,-5.31
2019-01-22T03:58:02.612Z,-5.18
2019-01-22T03:59:02.983Z,-5.18
2019-01-22T04:00:02.303Z,-5.12
2019-01-22T04:01:02.692Z,-5.18
2019-01-22T04:02:02.998Z,-5.18
2019-01-22T04:03:02.374Z,-5.12
2019-01-22T04:04:02.688Z,-5.12
2019-01-22T04:05:03.001Z,-5.12
2019-01-22T04:06:02.313Z,-5.18
2019-01-22T04:07:02.606Z,-5.18
2019-01-22T04:08:02.936Z,-5.18
2019-01-22T04:09:03.208Z,-5.12
2019-01-22T04:10:02.552Z,-5.25
2019-01-22T04:11:02.893Z,-5.18
2019-01-22T04:12:03.175Z,-5.12
2019-01-22T04:13:02.439Z,-5.18
2019-01-22T04:14:02.819Z,-5.18
2019-01-22T04:15:02.374Z,-5.25
2019-01-22T04:16:02.685Z,-5.31
2019-01-22T04:17:03.986Z,-5.18
2019-01-22T04:18:02.292Z,-5.18
2019-01-22T04:19:02.619Z,-5.18
2019-01-22T04:20:02.949Z,-5.25
2019-01-22T04:21:03.240Z,-5.25
2019-01-22T04:22:02.574Z,-5.31
2019-01-22T04:23:03.011Z,-5.31
2019-01-22T04:24:02.290Z,-5.25
2019-01-22T04:25:02.589Z,-5.25
2019-01-22T04:26:02.927Z,-5.25
2019-01-22T04:27:03.301Z,-5.43
2019-01-22T04:28:02.601Z,-5.43
2019-01-22T04:29:02.931Z,-5.25
2019-01-22T04:30:03.333Z,-5.18
2019-01-22T04:31:02.634Z,-5.18
2019-01-22T04:32:02.346Z,-5.18
2019-01-22T04:33:02.697Z,-5.25
2019-01-22T04:34:03.010Z,-5.37
2019-01-22T04:35:02.371Z,-5.31
2019-01-22T04:36:02.687Z,-5.43
2019-01-22T04:37:03.026Z,-5.37
2019-01-22T04:38:02.364Z,-5.31
2019-01-22T04:39:02.693Z,-5.25
2019-01-22T04:40:03.094Z,-5.31
2019-01-22T04:41:02.452Z,-5.25
2019-01-22T04:42:02.771Z,-5.18
2019-01-22T04:43:03.147Z,-5.31
2019-01-22T04:44:02.456Z,-5.25
2019-01-22T04:45:02.772Z,-5.31
2019-01-22T04:46:03.150Z,-5.25
2019-01-22T04:47:02.451Z,-5.31
2019-01-22T04:48:02.822Z,-5.25
2019-01-22T04:49:03.376Z,-5.31
2019-01-22T04:50:02.685Z,-5.25
2019-01-22T04:51:03.114Z,-5.25
2019-01-22T04:52:02.439Z,-5.25
2019-01-22T04:53:02.898Z,-5.37
2019-01-22T04:54:09.537Z,-5.31
2019-01-22T04:55:03.172Z,-5.25
2019-01-22T04:56:02.464Z,-5.25
2019-01-22T04:57:02.771Z,-5.31
2019-01-22T04:58:03.143Z,-5.31
2019-01-22T04:59:02.471Z,-5.25
2019-01-22T05:00:02.771Z,-5.25
2019-01-22T05:01:03.139Z,-5.25
2019-01-22T05:02:02.441Z,-5.25
2019-01-22T05:03:02.778Z,-5.25
2019-01-22T05:04:03.135Z,-5.31
2019-01-22T05:05:02.494Z,-5.37
2019-01-22T05:06:03.170Z,-5.37
2019-01-22T05:07:02.481Z,-5.37
2019-01-22T05:08:02.761Z,-5.25
2019-01-22T05:09:03.156Z,-5.25
2019-01-22T05:10:02.446Z,-5.31
2019-01-22T05:11:02.758Z,-5.37
2019-01-22T05:12:03.090Z,-5.43
2019-01-22T05:13:02.371Z,-5.31
2019-01-22T05:14:02.688Z,-5.37
2019-01-22T05:15:02.413Z,-5.31
2019-01-22T05:16:02.744Z,-5.31
2019-01-22T05:17:03.091Z,-5.31
2019-01-22T05:18:02.455Z,-5.31
2019-01-22T05:19:02.941Z,-5.37
2019-01-22T05:20:02.347Z,-5.37
2019-01-22T05:21:02.690Z,-5.43
2019-01-22T05:22:03.021Z,-5.5
2019-01-22T05:23:02.529Z,-5.43
2019-01-22T05:24:02.847Z,-5.56
2019-01-22T05:25:03.180Z,-5.43
2019-01-22T05:26:02.757Z,-5.5
2019-01-22T05:27:03.082Z,-5.62
2019-01-22T05:28:02.371Z,-5.68
2019-01-22T05:29:02.687Z,-5.62
2019-01-22T05:30:03.065Z,-5.62
2019-01-22T05:31:02.376Z,-5.62
2019-01-22T05:32:03.132Z,-5.62
2019-01-22T05:33:02.435Z,-5.56
2019-01-22T05:34:02.767Z,-5.5
2019-01-22T05:35:03.087Z,-5.62
2019-01-22T05:36:02.397Z,-5.68
2019-01-22T05:37:02.687Z,-5.68
2019-01-22T05:38:03.005Z,-5.81
2019-01-22T05:39:02.292Z,-5.62
2019-01-22T05:40:02.792Z,-5.68
2019-01-22T05:41:03.156Z,-5.68
2019-01-22T05:42:02.438Z,-5.62
2019-01-22T05:43:02.787Z,-5.68
2019-01-22T05:44:03.083Z,-5.68
2019-01-22T05:45:02.373Z,-5.62
2019-01-22T05:46:02.743Z,-5.56
2019-01-22T05:47:03.170Z,-5.62
2019-01-22T05:48:03.642Z,-5.56
2019-01-22T05:49:02.918Z,-5.62
2019-01-22T05:50:03.257Z,-5.62
2019-01-22T05:51:02.585Z,-5.62
2019-01-22T05:52:03.024Z,-5.62
2019-01-22T05:53:02.293Z,-5.68
2019-01-22T05:54:02.622Z,-5.68
2019-01-22T05:55:02.919Z,-5.62
2019-01-22T05:56:03.245Z,-5.56
2019-01-22T05:57:02.559Z,-5.62
2019-01-22T05:58:02.874Z,-5.68
2019-01-22T05:59:04.044Z,-5.75
2019-01-22T06:00:02.365Z,-5.75
2019-01-22T06:01:02.600Z,-5.81
2019-01-22T06:02:02.949Z,-5.75
2019-01-22T06:03:03.305Z,-5.68
2019-01-22T06:04:02.625Z,-5.68
2019-01-22T06:05:02.951Z,-5.75
2019-01-22T06:06:03.244Z,-5.75
2019-01-22T06:07:02.613Z,-5.75
2019-01-22T06:08:02.941Z,-5.81
2019-01-22T06:09:03.253Z,-5.75
2019-01-22T06:10:02.518Z,-5.75
2019-01-22T06:11:02.840Z,-5.75
2019-01-22T06:12:03.230Z,-5.75
2019-01-22T06:13:02.587Z,-5.81
2019-01-22T06:14:02.848Z,-5.75
2019-01-22T06:15:04.062Z,-5.81
2019-01-22T06:16:02.360Z,-5.75
2019-01-22T06:17:02.696Z,-5.81
2019-01-22T06:18:03.066Z,-5.75
2019-01-22T06:19:02.418Z,-5.81
2019-01-22T06:20:02.682Z,-5.81
2019-01-22T06:21:03.009Z,-5.81
2019-01-22T06:22:02.246Z,-5.87
2019-01-22T06:23:02.552Z,-5.87
2019-01-22T06:24:02.867Z,-5.87
2019-01-22T06:25:03.157Z,-5.87
2019-01-22T06:26:02.443Z,-5.87
2019-01-22T06:27:02.772Z,-5.93
2019-01-22T06:28:03.173Z,-5.87
2019-01-22T06:29:02.448Z,-5.81
2019-01-22T06:30:02.762Z,-5.75
2019-01-22T06:31:03.094Z,-5.75
2019-01-22T06:32:02.380Z,-5.68
2019-01-22T06:33:02.703Z,-5.75
2019-01-22T06:34:03.067Z,-5.75
2019-01-22T06:35:02.386Z,-5.75
2019-01-22T06:36:02.688Z,-5.87
2019-01-22T06:37:03.000Z,-5.87
2019-01-22T06:38:02.284Z,-5.87
2019-01-22T06:39:02.630Z,-5.81
2019-01-22T06:40:02.925Z,-5.81
2019-01-22T06:41:04.126Z,-5.75
2019-01-22T06:42:03.318Z,-5.81
2019-01-22T06:43:02.612Z,-5.87
2019-01-22T06:44:03.832Z,-5.81
2019-01-22T06:45:03.074Z,-5.81
2019-01-22T06:46:02.359Z,-5.87
2019-01-22T06:47:02.684Z,-5.81
2019-01-22T06:48:03.003Z,-5.81
2019-01-22T06:49:02.340Z,-5.81
2019-01-22T06:50:02.603Z,-5.75
2019-01-22T06:51:02.939Z,-5.81
2019-01-22T06:52:03.247Z,-5.75
2019-01-22T06:53:02.533Z,-5.87
2019-01-22T06:54:02.925Z,-5.81
2019-01-22T06:55:03.263Z,-5.81
2019-01-22T06:56:02.520Z,-5.75
2019-01-22T06:57:02.847Z,-5.81
2019-01-22T06:58:03.173Z,-5.81
2019-01-22T06:59:02.450Z,-5.81
2019-01-22T07:00:02.792Z,-5.81
2019-01-22T07:01:03.081Z,-5.75
2019-01-22T07:02:02.417Z,-5.81
2019-01-22T07:03:02.692Z,-5.87
2019-01-22T07:04:03.058Z,-5.93
2019-01-22T07:05:02.381Z,-5.93
2019-01-22T07:06:02.732Z,-5.87
2019-01-22T07:07:03.053Z,-5.93
2019-01-22T07:08:02.363Z,-6
2019-01-22T07:09:02.691Z,-6
2019-01-22T07:10:03.055Z,-6.06
2019-01-22T07:11:03.211Z,-6.12
2019-01-22T07:12:02.615Z,-6.12
2019-01-22T07:13:02.930Z,-6.12
2019-01-22T07:14:03.245Z,-6.12
2019-01-22T07:15:02.522Z,-6.18
2019-01-22T07:16:02.871Z,-6.25
2019-01-22T07:17:03.171Z,-6.18
2019-01-22T07:18:02.449Z,-6.25
2019-01-22T07:19:02.851Z,-6.18
2019-01-22T07:20:03.165Z,-6.12
2019-01-22T07:21:02.476Z,-6
2019-01-22T07:22:02.786Z,-6.06
2019-01-22T07:23:03.092Z,-6.06
2019-01-22T07:24:02.358Z,-6.06
2019-01-22T07:25:04.713Z,-6.12
2019-01-22T07:26:02.435Z,-6.12
2019-01-22T07:27:02.773Z,-6.18
2019-01-22T07:28:03.079Z,-6.12
2019-01-22T07:29:02.386Z,-6.12
2019-01-22T07:30:02.696Z,-6.18
2019-01-22T07:31:05.817Z,-6.18
2019-01-22T07:32:02.285Z,-6.18
2019-01-22T07:33:02.614Z,-6
2019-01-22T07:34:02.975Z,-5.93
2019-01-22T07:35:02.351Z,-5.87
2019-01-22T07:36:02.694Z,-5.93
2019-01-22T07:37:03.031Z,-5.93
2019-01-22T07:38:02.295Z,-6.06
2019-01-22T07:39:02.612Z,-6.06
2019-01-22T07:40:02.937Z,-6
2019-01-22T07:41:03.263Z,-6.12
2019-01-22T07:42:02.560Z,-6.06
2019-01-22T07:43:02.842Z,-6.06
2019-01-22T07:44:03.161Z,-5.93
2019-01-22T07:45:02.443Z,-6
2019-01-22T07:46:03.665Z,-5.87
2019-01-22T07:47:03.012Z,-5.81
2019-01-22T07:48:02.281Z,-5.87
2019-01-22T07:49:02.658Z,-5.75
2019-01-22T07:50:02.980Z,-5.75
2019-01-22T07:51:02.304Z,-5.75
2019-01-22T07:52:02.614Z,-5.68
2019-01-22T07:53:02.954Z,-5.68
2019-01-22T07:54:03.239Z,-5.68
2019-01-22T07:55:02.533Z,-5.62
2019-01-22T07:56:02.887Z,-5.68
2019-01-22T07:57:03.181Z,-5.68
2019-01-22T07:58:02.469Z,-5.62
2019-01-22T07:59:02.768Z,-5.62
2019-01-22T08:00:03.085Z,-5.62
2019-01-22T08:01:02.394Z,-5.68
2019-01-22T08:02:02.774Z,-5.68
2019-01-22T08:03:04.031Z,-5.56
2019-01-22T08:04:02.382Z,-5.56
2019-01-22T08:05:02.740Z,-5.56
2019-01-22T08:06:03.018Z,-5.56
2019-01-22T08:07:02.288Z,-5.62
2019-01-22T08:08:02.670Z,-5.56
2019-01-22T08:09:03.015Z,-5.5
2019-01-22T08:10:02.267Z,-5.5
2019-01-22T08:11:02.534Z,-5.5
2019-01-22T08:12:02.846Z,-5.56
2019-01-22T08:13:03.219Z,-5.56
2019-01-22T08:14:02.518Z,-5.56
2019-01-22T08:15:02.842Z,-5.56
2019-01-22T08:16:03.173Z,-5.5
2019-01-22T08:17:02.453Z,-5.5
2019-01-22T08:18:02.773Z,-5.43
2019-01-22T08:19:03.110Z,-5.43
2019-01-22T08:20:02.548Z,-5.43
2019-01-22T08:21:02.850Z,-5.56
2019-01-22T08:22:03.176Z,-5.56
2019-01-22T08:23:02.460Z,-5.5
2019-01-22T08:24:02.783Z,-5.43
2019-01-22T08:25:03.072Z,-5.37
2019-01-22T08:26:02.364Z,-5.43
2019-01-22T08:27:02.687Z,-5.37
2019-01-22T08:28:03.006Z,-5.37
2019-01-22T08:29:02.341Z,-5.37
2019-01-22T08:30:02.609Z,-5.31
2019-01-22T08:31:02.936Z,-5.31
2019-01-22T08:32:03.254Z,-5.43
2019-01-22T08:33:02.524Z,-5.37
2019-01-22T08:34:02.939Z,-5.25
2019-01-22T08:35:03.342Z,-5.25
2019-01-22T08:36:02.616Z,-5.31
2019-01-22T08:37:03.797Z,-5.31
2019-01-22T08:38:03.102Z,-5.37
2019-01-22T08:39:02.370Z,-5.31
2019-01-22T08:40:02.775Z,-5.25
2019-01-22T08:41:03.084Z,-5.25
2019-01-22T08:42:02.367Z,-5.25
2019-01-22T08:43:02.685Z,-5.25
2019-01-22T08:44:03.000Z,-5.18
2019-01-22T08:45:02.292Z,-5.18
2019-01-22T08:46:02.666Z,-5.18
2019-01-22T08:47:03.015Z,-5.18
2019-01-22T08:48:02.292Z,-5.12
2019-01-22T08:49:02.618Z,-5.18
2019-01-22T08:50:02.954Z,-5.12
2019-01-22T08:51:03.341Z,-5.12
2019-01-22T08:52:02.608Z,-5.12
2019-01-22T08:53:02.927Z,-5.18
2019-01-22T08:54:03.256Z,-5.18
2019-01-22T08:55:07.964Z,-5.12
2019-01-22T08:56:02.549Z,-5.12
2019-01-22T08:57:02.906Z,-5.12
2019-01-22T08:58:03.249Z,-5.12
2019-01-22T08:59:02.526Z,-5.18
2019-01-22T09:00:02.831Z,-5.18
2019-01-22T09:01:03.098Z,-5.06
2019-01-22T09:02:04.181Z,-5
2019-01-22T09:03:02.473Z,-5
2019-01-22T09:04:02.761Z,-5
2019-01-22T09:05:03.969Z,-5
2019-01-22T09:06:02.277Z,-5.06
2019-01-22T09:07:02.695Z,-5.06
2019-01-22T09:08:03.053Z,-5.06
2019-01-22T09:09:02.383Z,-5.06
2019-01-22T09:10:02.681Z,-5
2019-01-22T09:11:02.999Z,-5
2019-01-22T09:12:02.298Z,-5
2019-01-22T09:13:02.613Z,-4.93
2019-01-22T09:14:02.991Z,-4.93
2019-01-22T09:15:02.288Z,-5
2019-01-22T09:16:02.595Z,-4.93
2019-01-22T09:17:02.932Z,-4.93
2019-01-22T09:18:03.251Z,-4.93
2019-01-22T09:19:02.549Z,-4.93
2019-01-22T09:20:02.973Z,-4.87
2019-01-22T09:21:02.354Z,-4.93
2019-01-22T09:22:02.662Z,-4.87
2019-01-22T09:23:02.922Z,-4.87
2019-01-22T09:24:03.251Z,-4.81
2019-01-22T09:25:02.580Z,-4.75
2019-01-22T09:26:02.841Z,-4.68
2019-01-22T09:27:03.164Z,-4.68
2019-01-22T09:28:02.450Z,-4.68
2019-01-22T09:29:02.778Z,-4.68
2019-01-22T09:30:03.140Z,-4.75
2019-01-22T09:31:02.453Z,-4.75
2019-01-22T09:32:02.769Z,-4.68
2019-01-22T09:33:03.091Z,-4.75
2019-01-22T09:34:02.390Z,-4.62
2019-01-22T09:35:02.692Z,-4.62
2019-01-22T09:36:03.103Z,-4.68
2019-01-22T09:37:02.440Z,-4.68
2019-01-22T09:38:02.776Z,-4.62
2019-01-22T09:39:03.093Z,-4.62
2019-01-22T09:40:02.380Z,-4.62
2019-01-22T09:41:02.743Z,-4.56
2019-01-22T09:42:03.005Z,-4.56
2019-01-22T09:43:02.329Z,-4.56
2019-01-22T09:44:02.613Z,-4.56
2019-01-22T09:45:02.941Z,-4.56
2019-01-22T09:46:03.335Z,-4.56
2019-01-22T09:47:02.687Z,-4.5
2019-01-22T09:48:03.006Z,-4.5
2019-01-22T09:49:02.290Z,-4.5
2019-01-22T09:50:02.618Z,-4.5
2019-01-22T09:51:02.939Z,-4.5
2019-01-22T09:52:03.302Z,-4.5
2019-01-22T09:53:02.624Z,-4.43
2019-01-22T09:54:02.945Z,-4.43
2019-01-22T09:55:03.239Z,-4.43
2019-01-22T09:56:02.525Z,-4.43
2019-01-22T09:57:02.862Z,-4.37
2019-01-22T09:58:03.266Z,-4.37
2019-01-22T09:59:02.525Z,-4.37
2019-01-22T10:00:02.852Z,-4.37
2019-01-22T10:01:03.185Z,-4.37
2019-01-22T10:02:02.491Z,-4.31
2019-01-22T10:03:02.771Z,-4.25
2019-01-22T10:04:03.671Z,-4.25
2019-01-22T10:05:03.107Z,-4.25
2019-01-22T10:06:02.445Z,-4.25
2019-01-22T10:07:02.776Z,-4.25
2019-01-22T10:08:03.155Z,-4.25
2019-01-22T10:09:02.461Z,-4.25
2019-01-22T10:10:02.818Z,-4.25
2019-01-22T10:11:03.094Z,-4.18
2019-01-22T10:12:02.389Z,-4.18
2019-01-22T10:13:02.712Z,-4.18
2019-01-22T10:14:03.031Z,-4.12
2019-01-22T10:15:02.297Z,-4.12
2019-01-22T10:16:02.664Z,-4.12
2019-01-22T10:17:02.937Z,-4.06
2019-01-22T10:18:03.262Z,-4.06
2019-01-22T10:19:02.649Z,-4.06
2019-01-22T10:20:02.933Z,-4.06
2019-01-22T10:21:03.302Z,-4.06
2019-01-22T10:22:02.623Z,-4.06
2019-01-22T10:23:03.026Z,-4.06
2019-01-22T10:24:02.292Z,-4
2019-01-22T10:25:02.596Z,-4
2019-01-22T10:26:02.929Z,-4
2019-01-22T10:27:03.309Z,-4
2019-01-22T10:28:02.610Z,-3.93
2019-01-22T10:29:02.922Z,-3.93
2019-01-22T10:30:03.253Z,-3.93
2019-01-22T10:31:02.548Z,-3.93
2019-01-22T10:32:02.856Z,-3.93
2019-01-22T10:33:03.224Z,-3.93
2019-01-22T10:34:02.547Z,-3.93
2019-01-22T10:35:02.838Z,-3.93
2019-01-22T10:36:03.165Z,-3.87
2019-01-22T10:37:02.461Z,-3.93
2019-01-22T10:38:02.830Z,-3.87
2019-01-22T10:39:04.133Z,-3.87
2019-01-22T10:40:02.521Z,-3.87
2019-01-22T10:41:02.841Z,-3.87
2019-01-22T10:42:03.169Z,-3.87
2019-01-22T10:43:08.943Z,-3.81
2019-01-22T10:44:02.560Z,-3.81
2019-01-22T10:45:02.905Z,-3.81
2019-01-22T10:46:03.253Z,-3.81
2019-01-22T10:47:02.533Z,-3.81
2019-01-22T10:48:02.857Z,-3.81
2019-01-22T10:49:03.167Z,-3.81
2019-01-22T10:50:02.552Z,-3.75
2019-01-22T10:51:02.907Z,-3.81
2019-01-22T10:52:03.170Z,-3.75
2019-01-22T10:53:02.503Z,-3.75
2019-01-22T10:54:02.878Z,-3.75
2019-01-22T10:55:03.195Z,-3.68
2019-01-22T10:56:02.530Z,-3.68
2019-01-22T10:57:02.941Z,-3.68
2019-01-22T10:58:03.802Z,-3.68
2019-01-22T10:59:03.174Z,-3.68
2019-01-22T11:00:02.458Z,-3.62
2019-01-22T11:01:02.787Z,-3.62
2019-01-22T11:02:03.287Z,-3.56
2019-01-22T11:03:02.629Z,-3.56
2019-01-22T11:04:02.928Z,-3.56
2019-01-22T11:05:03.274Z,-3.56
2019-01-22T11:06:02.622Z,-3.62
2019-01-22T11:07:03.020Z,-3.56
2019-01-22T11:08:02.346Z,-3.56
2019-01-22T11:09:02.700Z,-3.56
2019-01-22T11:10:03.024Z,-3.56
2019-01-22T11:11:02.285Z,-3.56
2019-01-22T11:12:02.602Z,-3.56
2019-01-22T11:13:02.984Z,-3.56
2019-01-22T11:14:02.284Z,-3.5
2019-01-22T11:15:02.614Z,-3.56
2019-01-22T11:16:02.923Z,-3.5
2019-01-22T11:17:03.254Z,-3.5
2019-01-22T11:18:02.593Z,-3.5
2019-01-22T11:19:02.981Z,-3.43
2019-01-22T11:20:02.292Z,-3.5
2019-01-22T11:21:02.616Z,-3.43
2019-01-22T11:22:02.921Z,-3.43
2019-01-22T11:23:03.171Z,-3.43
2019-01-22T11:24:04.261Z,-3.43
2019-01-22T11:25:02.533Z,-3.37
2019-01-22T11:26:02.860Z,-3.43
2019-01-22T11:27:03.179Z,-3.37
2019-01-22T11:28:03.322Z,-3.37
2019-01-22T11:29:02.606Z,-3.31
2019-01-22T11:30:03.097Z,-3.37
2019-01-22T11:31:02.382Z,-3.37
2019-01-22T11:32:02.687Z,-3.37
2019-01-22T11:33:03.061Z,-3.31
2019-01-22T11:34:02.373Z,-3.37
2019-01-22T11:35:02.698Z,-3.37
2019-01-22T11:36:03.069Z,-3.37
2019-01-22T11:37:02.390Z,-3.25
2019-01-22T11:38:02.769Z,-3.25
2019-01-22T11:39:03.096Z,-3.25
2019-01-22T11:40:02.385Z,-3.25
2019-01-22T11:41:02.693Z,-3.25
2019-01-22T11:42:03.071Z,-3.25
2019-01-22T11:43:02.369Z,-3.18
2019-01-22T11:44:02.701Z,-3.18
2019-01-22T11:45:02.999Z,-3.18
2019-01-22T11:46:02.293Z,-3.12
2019-01-22T11:47:02.621Z,-3.12
2019-01-22T11:48:03.172Z,-3.12
2019-01-22T11:49:02.455Z,-3.12
2019-01-22T11:50:02.765Z,-3.12
2019-01-22T11:51:03.101Z,-3.18
2019-01-22T11:52:02.359Z,-3.18
2019-01-22T11:53:02.700Z,-3.12
2019-01-22T11:54:03.106Z,-3.06
2019-01-22T11:55:02.370Z,-3.06
2019-01-22T11:56:02.692Z,-3.06
2019-01-22T11:57:03.004Z,-3.06
2019-01-22T11:58:02.299Z,-3.06
2019-01-22T11:59:02.615Z,-3.06
2019-01-22T12:00:02.986Z,-3.06
2019-01-22T12:01:02.283Z,-3.06
2019-01-22T12:02:02.709Z,-3.06
2019-01-22T12:03:03.005Z,-3
2019-01-22T12:04:02.284Z,-3
2019-01-22T12:05:02.610Z,-3
2019-01-22T12:06:02.987Z,-3
2019-01-22T12:07:02.280Z,-3
2019-01-22T12:08:02.609Z,-2.93
2019-01-22T12:09:02.941Z,-2.93
2019-01-22T12:10:03.241Z,-2.87
2019-01-22T12:11:02.587Z,-2.87
2019-01-22T12:12:02.987Z,-2.87
2019-01-22T12:13:02.333Z,-2.93
2019-01-22T12:14:02.611Z,-2.93
2019-01-22T12:15:02.936Z,-2.93
2019-01-22T12:16:03.247Z,-2.87
2019-01-22T12:17:02.596Z,-2.81
2019-01-22T12:18:03.028Z,-2.81
2019-01-22T12:19:02.298Z,-2.87
2019-01-22T12:20:02.602Z,-2.87
2019-01-22T12:21:02.933Z,-2.87
2019-01-22T12:22:04.148Z,-2.81
2019-01-22T12:23:02.535Z,-2.81
2019-01-22T12:24:02.846Z,-2.81
2019-01-22T12:25:03.166Z,-2.81
2019-01-22T12:26:02.444Z,-2.81
2019-01-22T12:27:02.762Z,-2.75
2019-01-22T12:28:03.205Z,-2.75
2019-01-22T12:29:02.554Z,-2.87
2019-01-22T12:30:02.856Z,-2.75
2019-01-22T12:31:03.161Z,-2.75
2019-01-22T12:32:02.527Z,-2.68
2019-01-22T12:33:02.852Z,-2.75
2019-01-22T12:34:03.250Z,-2.75
2019-01-22T12:35:02.530Z,-2.68
2019-01-22T12:36:02.852Z,-2.68
2019-01-22T12:37:03.171Z,-2.68
2019-01-22T12:38:02.467Z,-2.68
2019-01-22T12:39:02.828Z,-2.68
2019-01-22T12:40:03.227Z,-2.68
2019-01-22T12:41:02.540Z,-2.62
2019-01-22T12:42:02.902Z,-2.62
2019-01-22T12:43:03.161Z,-2.62
2019-01-22T12:44:02.442Z,-2.68
2019-01-22T12:45:02.822Z,-2.68
2019-01-22T12:46:03.344Z,-2.68
2019-01-22T12:47:03.595Z,-2.56
2019-01-22T12:48:02.859Z,-2.62
2019-01-22T12:49:03.181Z,-2.62
2019-01-22T12:50:02.441Z,-2.68
2019-01-22T12:51:02.771Z,-2.68
2019-01-22T12:52:03.139Z,-2.56
2019-01-22T12:53:02.446Z,-2.56
2019-01-22T12:54:02.764Z,-2.56
2019-01-22T12:55:03.090Z,-2.56
2019-01-22T12:56:04.542Z,-2.56
2019-01-22T12:57:03.097Z,-2.56
2019-01-22T12:58:02.435Z,-2.56
2019-01-22T12:59:02.690Z,-2.56